Nearby Weather Observations


KTIP - Rantoul, Illinois, USA
Distance from station: ENE 12mi, 19km
Updated: Mon, 10-Dec-2018 5:55am CST
Freezing fog, Overcast
Freezing fog, Overcast
 Wind from calm
Wind: Calm
Temperature: 14°F , -10°C
Dew Point: 14°F , -10°C
Humidity: 100%
Barometer: 30.30 inHg , 1026.1 hPa
Summary: Freezing Fog
Clouds: Overcast
Visibility: 1/2 mile , 2 km
Cloud details: Overcast 300 ft
2018/12/10 11:55 KTIP 101155Z AUTO 00000KT 1/2SM FZFG OVC003 M10/M10 A3030 RMK AO2 T10961105 11061 21099
KCMI - Champaign/Urbana, Illinois, USA
Distance from station: SSE 14mi, 22km
Updated: Mon, 10-Dec-2018 5:53am CST
Mist, Partly cloudy
Mist, Partly cloudy
 Wind from NW
Wind: NW 6 mph , 9 km/h
Temperature: 10°F , -12°C
Wind Chill: 0°F , -18°C
Dew Point: 9°F , -13°C
Humidity: 92%
Barometer: 30.30 inHg , 1026.1 hPa
Summary: Mist
Clouds: Partly cloudy
Visibility: 2 miles , 3 km
Cloud details: Partly cloudy 1000 ft
2018/12/10 11:53 KCMI 101153Z 31005KT 2SM BR SCT010 M12/M13 A3030 RMK AO2 SFC VIS 2 1/2 SLP274 I1000 I6001 T11221133 11083 21122 53003
 
KBMI - Bloomington/Norm, Illinois, USA
Distance from station: WNW 34mi, 55km
Updated: Mon, 10-Dec-2018 5:56am CST
Freezing fog, Mostly cloudy
Freezing fog, Mostly cloudy
 Wind from SW
Wind: SW 3 mph , 6 km/h
Temperature: 10°F , -12°C
Dew Point: 9°F , -13°C
Humidity: 92%
Barometer: 30.30 inHg , 1026.1 hPa
Summary: Freezing Fog
Clouds: Mostly cloudy
Visibility: 1/2 mile , 2 km
Cloud details: Mostly cloudy 400 ft
2018/12/10 11:56 KBMI 101156Z 23003KT 1/2SM R20/2200VP6000FT FZFG BKN004 M12/M13 A3030 RMK AO2 SLP288 T11171128 11072 21117 56001
KDEC - Decatur, Illinois, USA
Distance from station: SW 37mi, 60km
Updated: Mon, 10-Dec-2018 5:54am CST
Mist, Overcast
Mist, Overcast
 Wind from calm
Wind: Calm
Temperature: 19°F , -7°C
Dew Point: 18°F , -8°C
Humidity: 93%
Barometer: 30.31 inHg , 1026.4 hPa
Summary: Mist
Clouds: Overcast
Visibility: 2 miles , 3 km
Cloud details: Overcast 300 ft
2018/12/10 11:54 KDEC 101154Z 00000KT 2SM BR OVC003 M07/M08 A3031 RMK AO2 SLP273 I6001 T10671083 11067 21100 55000
 
KDNV - Danville, Illinois, USA
Distance from station: E 40mi, 65km
Updated: Mon, 10-Dec-2018 5:55am CST
Mist, Overcast
Mist, Overcast
 Wind from N
Wind: N 5 mph , 7 km/h
Temperature: 23°F , -5°C
Wind Chill: 17°F , -8°C
Dew Point: 21°F , -6°C
Humidity: 93%
Barometer: 30.27 inHg , 1025.1 hPa
Summary: Mist
Clouds: Overcast
Visibility: 2 1/2 miles , 2 km
Cloud details: Overcast 500 ft
2018/12/10 11:55 KDNV 101155Z AUTO 35004KT 2 1/2SM BR OVC005 M05/M06 A3027 RMK AO2 T10551056 11055 21111
KAAA - Lincoln, Illinois, USA
Distance from station: W 52mi, 83km
Updated: Mon, 10-Dec-2018 5:55am CST
Mist, Overcast
Mist, Overcast
 Wind from calm
Wind: Calm
Temperature: 18°F , -8°C
Dew Point: 16°F , -9°C
Humidity: 93%
Barometer: 30.32 inHg , 1026.8 hPa
Summary: Mist
Clouds: Overcast
Visibility: 1 1/4 miles , 2 km
Cloud details: Overcast 200 ft
2018/12/10 11:55 KAAA 101155Z AUTO 00000KT 1 1/4SM BR OVC002 M08/M09 A3032 RMK AO2 T10851093 11075 21089
 
KMTO - Mattoon/Charlest, Illinois, USA
Distance from station: S 52mi, 84km
Updated: Mon, 10-Dec-2018 6:01am CST
Mist, Overcast
Mist, Overcast
 Wind from N
Wind: N 7 mph , 11 km/h
Temperature: 18°F , -8°C
Wind Chill: 9°F , -13°C
Dew Point: 16°F , -9°C
Humidity: 93%
Barometer: 30.29 inHg , 1025.7 hPa
Summary: Mist
Clouds: Overcast
Visibility: 1 3/4 miles , 5 km
Cloud details: Overcast 200 ft
2018/12/10 12:01 KMTO 101201Z AUTO 36006KT 1 3/4SM BR OVC002 M08/M09 A3029 RMK AO2 T10831094 $
KSPI - Springfield, Illinois, USA
Distance from station: WSW 74mi, 120km
Updated: Mon, 10-Dec-2018 5:52am CST
Mist, Clear
Mist, Clear
 Wind from WNW
Wind: WNW 3 mph , 6 km/h
Temperature: 9°F , -13°C
Dew Point: 7°F , -14°C
Humidity: 92%
Barometer: 30.32 inHg , 1026.8 hPa
Summary: Mist
Clouds: Clear
Visibility: 5 miles , 8 km
2018/12/10 11:52 KSPI 101152Z 29003KT 5SM BR CLR M13/M14 A3032 RMK AO2 SLP278 I1000 I6001 T11281144 11078 21128 56003
 
KLAF - Lafayette, Indiana, USA
Distance from station: E 76mi, 123km
Updated: Mon, 10-Dec-2018 5:54am CST
Mist, Overcast
Mist, Overcast
 Wind from N
Wind: N 5 mph , 7 km/h
Temperature: 21°F , -6°C
Wind Chill: 14°F , -10°C
Dew Point: 21°F , -6°C
Humidity: 100%
Barometer: 30.29 inHg , 1025.7 hPa
Summary: Mist
Clouds: Overcast
Visibility: 4 miles , 6 km
Cloud details: Overcast 500 ft
2018/12/10 11:54 KLAF 101154Z 01004KT 4SM BR OVC005 M06/M06 A3029 RMK AO2 SLP265 I6000 T10561056 11044 21100 55001
KPIA - Peoria, Illinois, USA
Distance from station: WNW 76mi, 123km
Updated: Mon, 10-Dec-2018 5:54am CST
Mist, Clear
Mist, Clear
 Wind from calm
Wind: Calm
Temperature: 14°F , -10°C
Dew Point: 10°F , -12°C
Humidity: 85%
Barometer: 30.31 inHg , 1026.4 hPa
Summary: Mist
Clouds: Clear
Visibility: 5 miles , 8 km
2018/12/10 11:54 KPIA 101154Z 00000KT 5SM BR CLR M10/M12 A3031 RMK AO2 SLP275 I1000 I6001 T11001122 11067 21100 56007
 
KHUF - Terre Haute, Indiana, USA
Distance from station: SE 77mi, 124km
Updated: Mon, 10-Dec-2018 6:01am CST
Mist, Mostly cloudy
Mist, Mostly cloudy
 Wind from NW
Wind: NW 3 mph , 6 km/h
Temperature: 18°F , -8°C
Dew Point: 16°F , -9°C
Humidity: 93%
Barometer: 30.30 inHg , 1026.1 hPa
Summary: Mist
Clouds: Mostly cloudy
Visibility: 4 miles , 6 km
Cloud details: Mostly cloudy 500 ft
2018/12/10 12:01 KHUF 101201Z 32003KT 4SM BR BKN005 M08/M09 A3030 RMK AO2 T10781089
K1H2 - Effingham, Illinois, USA
Distance from station: S 80mi, 129km
Updated: Mon, 10-Dec-2018 5:55am CST
Mist, Clear
Mist, Clear
 Wind from calm
Wind: Calm
Temperature: 19°F , -7°C
Dew Point: 18°F , -8°C
Humidity: 93%
Barometer: 30.32 inHg , 1026.8 hPa
Summary: Mist
Clouds: Clear
Visibility: 4 miles , 6 km
2018/12/10 11:55 K1H2 101155Z AUTO 00000KT 4SM BR CLR M07/M08 A3032 RMK AO2 T10751082 11041 21085
 
KIND - Indianapolis, Indiana, USA
Distance from station: ESE 117mi, 133km
Updated: Mon, 10-Dec-2018 5:54am CST
Mist, Mostly cloudy
Mist, Mostly cloudy
 Wind from NNW
Wind: NNW 7 mph , 11 km/h
Temperature: 18°F , -8°C
Wind Chill: 9°F , -13°C
Dew Point: 16°F , -9°C
Humidity: 93%
Barometer: 30.26 inHg , 1024.7 hPa
Summary: Mist
Clouds: Mostly cloudy
Visibility: 4 miles , 6 km
Cloud details: Mostly cloudy 400 ft
2018/12/10 11:54 KIND 101154Z 33006KT 4SM BR BKN004 M08/M09 A3026 RMK AO2 SLP259 I1000 I6001 T10831094 11061 21083 53001
KORD - Chicago O'hare, Illinois, USA
Distance from station: N 126mi, 203km
Updated: Mon, 10-Dec-2018 5:51am CST
Few Clouds
Few Clouds
 Wind from calm
Wind: Calm
Temperature: 18°F , -8°C
Dew Point: 12°F , -11°C
Humidity: 79%
Barometer: 30.27 inHg , 1025.1 hPa
Clouds: Few Clouds
Visibility: 8 miles , 13 km
Cloud details: Few Clouds 500 ft
2018/12/10 11:51 KORD 101151Z 00000KT 8SM FEW005 M08/M11 A3027 RMK AO2 SLP260 I6000 T10831106 11072 21089 55007 $
 
KSTL - St. Louis, Missouri, USA
Distance from station: SW 150mi, 185km
Updated: Mon, 10-Dec-2018 5:51am CST
Mist, Clear
Mist, Clear
 Wind from calm
Wind: Calm
Temperature: 19°F , -7°C
Dew Point: 18°F , -8°C
Humidity: 93%
Barometer: 30.34 inHg , 1027.4 hPa
Summary: Mist
Clouds: Clear
Visibility: 4 miles , 6 km
2018/12/10 11:51 KSTL 101151Z 00000KT 4SM BR CLR M07/M08 A3034 RMK AO2 SLP287 T10721083 11061 21083 53001